createdAt,value
2022-12-17T00:00:38.150Z,31.27
2022-12-17T00:03:24.232Z,33.17
2022-12-17T00:06:11.587Z,30.13
2022-12-17T00:08:57.157Z,31.63
2022-12-17T00:11:42.581Z,29.97
2022-12-17T00:14:29.473Z,30.67
2022-12-17T00:17:14.866Z,29.80
2022-12-17T00:20:00.324Z,31.03
2022-12-17T00:22:45.723Z,29.77
2022-12-17T00:25:31.282Z,32.20
2022-12-17T00:28:16.926Z,30.63
2022-12-17T00:31:10.337Z,31.47
2022-12-17T00:33:56.102Z,31.87
2022-12-17T00:36:42.105Z,31.73
2022-12-17T00:39:27.838Z,30.27
2022-12-17T00:42:15.027Z,30.70
2022-12-17T00:45:00.466Z,34.93
2022-12-17T00:47:47.334Z,29.90
2022-12-17T00:50:33.034Z,36.73
2022-12-17T00:53:18.529Z,32.97
2022-12-17T00:56:04.107Z,29.93
2022-12-17T00:58:49.581Z,33.20
2022-12-17T01:01:35.312Z,30.03
2022-12-17T01:04:22.887Z,34.77
2022-12-17T01:07:08.366Z,33.17
2022-12-17T01:09:53.895Z,32.93
2022-12-17T01:12:39.623Z,30.33
2022-12-17T01:15:26.406Z,32.57
2022-12-17T01:18:11.913Z,26.50
2022-12-17T01:20:58.651Z,27.40
2022-12-17T01:23:44.216Z,31.10
2022-12-17T01:26:29.794Z,27.40
2022-12-17T01:29:15.785Z,33.27
2022-12-17T01:32:01.932Z,29.83
2022-12-17T01:34:47.742Z,28.33
2022-12-17T01:37:36.034Z,29.07
2022-12-17T01:40:22.112Z,29.00
2022-12-17T01:43:07.654Z,28.00
2022-12-17T01:45:57.583Z,28.87
2022-12-17T01:48:50.424Z,25.70
2022-12-17T01:51:37.514Z,28.67
2022-12-17T01:54:25.249Z,29.63
2022-12-17T01:57:11.778Z,39.87
2022-12-17T02:00:05.904Z,30.23
2022-12-17T02:02:51.879Z,30.23
2022-12-17T02:05:50.680Z,28.53
2022-12-17T02:08:48.389Z,28.07
2022-12-17T02:11:48.279Z,27.47
2022-12-17T02:14:45.383Z,27.10
2022-12-17T02:17:39.813Z,26.57
2022-12-17T02:20:41.093Z,28.40
2022-12-17T02:23:40.487Z,30.17
2022-12-17T02:26:35.469Z,30.30
2022-12-17T02:29:25.791Z,37.17
2022-12-17T02:32:13.010Z,34.10
2022-12-17T02:35:06.300Z,31.10
2022-12-17T02:37:52.492Z,29.17
2022-12-17T02:40:42.173Z,33.33
2022-12-17T02:43:29.590Z,32.30
2022-12-17T02:46:16.524Z,34.90
2022-12-17T02:49:02.271Z,27.07
2022-12-17T02:51:48.236Z,31.23
2022-12-17T02:54:33.872Z,31.70
2022-12-17T02:57:19.304Z,30.30
2022-12-17T03:00:04.902Z,27.87
2022-12-17T03:02:51.796Z,32.57
2022-12-17T03:05:45.742Z,29.33
2022-12-17T03:08:31.982Z,31.10
2022-12-17T03:11:37.531Z,31.33
2022-12-17T03:14:23.262Z,28.43
2022-12-17T03:17:09.151Z,30.13
2022-12-17T03:19:55.889Z,30.33
2022-12-17T03:22:41.506Z,33.40
2022-12-17T03:25:27.448Z,28.37
2022-12-17T03:28:12.985Z,29.40
2022-12-17T03:30:58.688Z,28.70
2022-12-17T03:33:44.475Z,32.57
2022-12-17T03:36:36.201Z,32.30
2022-12-17T03:39:22.713Z,26.70
2022-12-17T03:42:08.297Z,30.77
2022-12-17T03:44:53.939Z,29.57
2022-12-17T03:47:39.551Z,31.77
2022-12-17T03:50:25.920Z,33.47
2022-12-17T03:53:12.705Z,30.80
2022-12-17T03:55:58.489Z,26.63
2022-12-17T03:58:43.924Z,33.60
2022-12-17T04:01:29.497Z,32.37
2022-12-17T04:04:15.270Z,30.37
2022-12-17T04:07:00.857Z,29.57
2022-12-17T04:09:47.626Z,29.50
2022-12-17T04:12:33.083Z,34.93
2022-12-17T04:15:18.933Z,29.40
2022-12-17T04:18:04.678Z,30.93
2022-12-17T04:20:50.158Z,32.13
2022-12-17T04:23:36.190Z,31.90
2022-12-17T04:26:23.318Z,31.83
2022-12-17T04:29:09.359Z,32.23
2022-12-17T04:31:54.825Z,31.27
2022-12-17T04:34:40.245Z,31.10
2022-12-17T04:37:25.803Z,40.57
2022-12-17T04:40:11.244Z,34.97
2022-12-17T04:42:58.027Z,36.30
2022-12-17T04:45:43.692Z,36.60
2022-12-17T04:48:32.120Z,33.80
2022-12-17T04:51:17.620Z,34.07
2022-12-17T04:54:03.165Z,32.53
2022-12-17T04:56:48.631Z,38.13
2022-12-17T04:59:35.604Z,33.47
2022-12-17T05:02:21.255Z,37.43
2022-12-17T05:05:07.049Z,35.17
2022-12-17T05:07:52.628Z,36.80
2022-12-17T05:10:38.238Z,42.47
2022-12-17T05:13:23.738Z,34.30
2022-12-17T05:16:14.212Z,33.73
2022-12-17T05:18:59.918Z,33.53
2022-12-17T05:21:45.379Z,33.70
2022-12-17T05:24:30.778Z,31.90
2022-12-17T05:27:16.702Z,32.97
2022-12-17T05:30:02.166Z,37.43
2022-12-17T05:32:49.080Z,35.37
2022-12-17T05:35:34.527Z,35.87
2022-12-17T05:38:23.286Z,33.73
2022-12-17T05:41:10.765Z,38.87
2022-12-17T05:43:56.183Z,31.70
2022-12-17T05:46:41.748Z,34.20
2022-12-17T05:49:28.878Z,31.93
2022-12-17T05:52:14.396Z,36.80
2022-12-17T05:54:59.877Z,39.47
2022-12-17T05:57:45.703Z,39.17
2022-12-17T06:00:32.455Z,36.17
2022-12-17T06:03:19.710Z,37.13
2022-12-17T06:06:12.434Z,38.83
2022-12-17T06:08:57.858Z,37.47
2022-12-17T06:11:43.376Z,35.07
2022-12-17T06:14:29.328Z,43.57
2022-12-17T06:17:14.849Z,46.33
2022-12-17T06:20:00.249Z,38.40
2022-12-17T06:22:47.106Z,35.60
2022-12-17T06:25:32.757Z,36.47
2022-12-17T06:28:19.898Z,42.57
2022-12-17T06:31:09.970Z,41.30
2022-12-17T06:33:56.157Z,34.97
2022-12-17T06:36:41.830Z,37.83
2022-12-17T06:39:29.457Z,38.70
2022-12-17T06:42:14.957Z,40.67
2022-12-17T06:45:00.521Z,39.87
2022-12-17T06:47:45.933Z,41.13
2022-12-17T06:50:31.414Z,45.17
2022-12-17T06:53:19.459Z,39.33
2022-12-17T06:56:06.272Z,41.03
2022-12-17T06:58:51.912Z,45.73
2022-12-17T07:01:38.237Z,43.43
2022-12-17T07:04:24.741Z,41.40
2022-12-17T07:07:10.397Z,41.57
2022-12-17T07:09:55.930Z,41.93
2022-12-17T07:12:44.074Z,45.87
2022-12-17T07:15:30.177Z,41.87
2022-12-17T07:18:18.349Z,38.77
2022-12-17T07:21:05.373Z,45.60
2022-12-17T07:23:51.509Z,38.93
2022-12-17T07:26:37.423Z,50.90
2022-12-17T07:29:24.653Z,43.30
2022-12-17T07:32:10.137Z,41.23
2022-12-17T07:34:56.003Z,47.20
2022-12-17T07:37:41.615Z,47.60
2022-12-17T07:40:28.817Z,44.97
2022-12-17T07:43:14.438Z,47.13
2022-12-17T07:46:01.498Z,47.27
2022-12-17T07:48:47.320Z,40.43
2022-12-17T07:51:33.336Z,45.50
2022-12-17T07:54:18.889Z,44.70
2022-12-17T07:57:04.658Z,45.10
2022-12-17T07:59:50.208Z,33.93
2022-12-17T08:02:37.817Z,44.27
2022-12-17T08:05:24.034Z,42.90
2022-12-17T08:08:09.473Z,48.03
2022-12-17T08:10:55.261Z,38.33
2022-12-17T08:13:40.710Z,39.83
2022-12-17T08:16:27.081Z,46.13
2022-12-17T08:19:14.229Z,44.63
2022-12-17T08:21:59.809Z,43.13
2022-12-17T08:24:45.488Z,44.10
2022-12-17T08:27:31.146Z,48.87
2022-12-17T08:30:16.633Z,45.73
2022-12-17T08:33:02.167Z,45.77
2022-12-17T08:35:48.712Z,41.97
2022-12-17T08:38:34.235Z,45.43
2022-12-17T08:41:20.302Z,42.73
2022-12-17T08:44:05.764Z,48.33
2022-12-17T08:46:51.204Z,46.80
2022-12-17T08:49:36.570Z,42.70
2022-12-17T08:52:24.898Z,43.43
2022-12-17T08:55:10.650Z,50.27
2022-12-17T08:57:55.923Z,45.93
2022-12-17T09:00:41.524Z,51.30
2022-12-17T09:03:27.773Z,48.93
2022-12-17T09:06:13.686Z,47.90
2022-12-17T09:09:00.580Z,45.33
2022-12-17T09:11:46.023Z,53.20
2022-12-17T09:14:31.543Z,50.97
2022-12-17T09:17:17.136Z,49.80
2022-12-17T09:20:02.738Z,52.80
2022-12-17T09:22:48.113Z,49.97
2022-12-17T09:25:34.818Z,43.53
2022-12-17T09:28:21.258Z,49.83
2022-12-17T09:31:07.058Z,45.63
2022-12-17T09:33:53.333Z,45.93
2022-12-17T09:36:39.077Z,38.83
2022-12-17T09:39:24.608Z,37.70
2022-12-17T09:42:23.412Z,40.07
2022-12-17T09:45:17.345Z,41.80
2022-12-17T09:48:16.333Z,37.90
2022-12-17T09:51:04.879Z,40.70
2022-12-17T09:53:57.359Z,35.20
2022-12-17T09:56:48.372Z,38.07
2022-12-17T09:59:40.762Z,35.47
2022-12-17T10:02:35.680Z,41.57
2022-12-17T10:05:25.863Z,35.10
2022-12-17T10:08:13.167Z,36.10
2022-12-17T10:11:04.707Z,37.30
2022-12-17T10:13:50.233Z,39.67
2022-12-17T10:16:47.540Z,41.13
2022-12-17T10:19:43.732Z,39.03
2022-12-17T10:22:34.579Z,36.00
2022-12-17T10:25:24.693Z,33.90
2022-12-17T10:28:10.762Z,42.87
2022-12-17T10:30:57.418Z,39.07
2022-12-17T10:33:44.417Z,45.50
2022-12-17T10:36:42.167Z,41.97
2022-12-17T10:39:36.748Z,46.63
2022-12-17T10:42:22.718Z,39.63
2022-12-17T10:45:08.581Z,41.87
2022-12-17T10:47:54.035Z,39.10
2022-12-17T10:50:42.674Z,41.10
2022-12-17T10:53:39.769Z,40.97
2022-12-17T10:56:38.888Z,42.73
2022-12-17T10:59:31.194Z,39.27
2022-12-17T11:02:22.853Z,44.93
2022-12-17T11:05:11.019Z,41.17
2022-12-17T11:08:01.841Z,46.67
2022-12-17T11:10:55.383Z,39.63
2022-12-17T11:13:52.040Z,42.43
2022-12-17T11:16:44.687Z,44.43
2022-12-17T11:19:51.823Z,46.93
2022-12-17T11:22:49.945Z,46.33
2022-12-17T11:26:01.301Z,41.10
2022-12-17T11:28:51.479Z,44.87
2022-12-17T11:32:09.555Z,44.07
2022-12-17T11:35:22.425Z,43.80
2022-12-17T11:38:22.598Z,43.73
2022-12-17T11:41:17.829Z,41.90
2022-12-17T11:44:14.477Z,47.23
2022-12-17T11:47:10.453Z,46.17
2022-12-17T11:50:08.579Z,45.27
2022-12-17T11:53:08.113Z,44.27
2022-12-17T11:56:03.295Z,48.20
2022-12-17T11:58:59.115Z,44.67
2022-12-17T12:01:55.365Z,52.70
2022-12-17T12:05:08.699Z,46.20
2022-12-17T12:08:04.926Z,46.50
2022-12-17T12:11:01.409Z,46.37
2022-12-17T12:13:58.660Z,46.07
2022-12-17T12:16:54.963Z,44.43
2022-12-17T12:19:49.081Z,43.87
2022-12-17T12:22:42.243Z,45.70
2022-12-17T12:25:47.162Z,45.33
2022-12-17T12:28:45.423Z,49.70
2022-12-17T12:31:46.734Z,45.40
2022-12-17T12:34:39.924Z,46.37
2022-12-17T12:37:30.922Z,48.27
2022-12-17T12:40:23.357Z,44.03
2022-12-17T12:43:20.384Z,48.60
2022-12-17T12:46:16.531Z,42.90
2022-12-17T12:49:13.658Z,42.43
2022-12-17T12:51:59.620Z,39.00
2022-12-17T12:54:49.620Z,47.63
2022-12-17T12:57:48.149Z,47.23
2022-12-17T13:00:53.646Z,40.67
2022-12-17T13:03:47.837Z,41.50
2022-12-17T13:06:45.583Z,44.03
2022-12-17T13:09:35.256Z,42.83
2022-12-17T13:12:25.498Z,41.83
2022-12-17T13:15:13.453Z,45.30
2022-12-17T13:17:54.498Z,40.60
2022-12-17T13:20:28.543Z,42.43
2022-12-17T13:23:24.849Z,45.77
2022-12-17T13:26:23.084Z,41.30
2022-12-17T13:29:10.181Z,42.70
2022-12-17T13:31:57.336Z,43.10
2022-12-17T13:34:35.061Z,45.23
2022-12-17T13:37:13.757Z,40.77
2022-12-17T13:39:56.180Z,39.43
2022-12-17T13:42:29.930Z,44.53
2022-12-17T13:44:59.187Z,39.10
2022-12-17T13:47:30.489Z,45.00
2022-12-17T13:52:47.359Z,41.93
2022-12-17T13:55:21.651Z,43.17
2022-12-17T13:57:50.701Z,47.37
2022-12-17T14:00:25.206Z,42.23
2022-12-17T14:02:53.672Z,42.30
2022-12-17T14:05:34.337Z,42.07
2022-12-17T14:08:05.294Z,34.87
2022-12-17T14:10:34.210Z,40.33
2022-12-17T14:13:08.080Z,41.07
2022-12-17T14:15:35.249Z,42.07
2022-12-17T14:18:04.090Z,41.80
2022-12-17T14:20:35.219Z,38.53
2022-12-17T14:23:06.261Z,35.53
2022-12-17T14:25:38.345Z,37.07
2022-12-17T14:28:21.715Z,40.13
2022-12-17T14:31:25.570Z,37.57
2022-12-17T14:33:38.429Z,40.00
2022-12-17T14:36:09.262Z,39.13
2022-12-17T14:38:38.852Z,38.63
2022-12-17T14:41:32.140Z,38.70
2022-12-17T14:44:01.922Z,40.57
2022-12-17T14:46:32.514Z,40.03
2022-12-17T14:49:02.249Z,37.10
2022-12-17T14:51:33.259Z,37.40
2022-12-17T14:54:32.955Z,42.57
2022-12-17T14:57:05.935Z,38.97
2022-12-17T14:59:35.907Z,38.13
2022-12-17T15:02:15.559Z,34.23
2022-12-17T15:04:42.698Z,38.00
2022-12-17T15:07:18.035Z,41.47
2022-12-17T15:09:45.541Z,32.77
2022-12-17T15:12:20.531Z,41.67
2022-12-17T15:14:47.791Z,38.97
2022-12-17T15:17:15.682Z,40.50
2022-12-17T15:19:42.651Z,41.93
2022-12-17T15:22:15.551Z,45.43
2022-12-17T15:24:43.699Z,40.43
2022-12-17T15:27:14.210Z,42.80
2022-12-17T15:29:43.387Z,50.00
2022-12-17T15:32:17.783Z,41.63
2022-12-17T15:34:45.033Z,46.13
2022-12-17T15:37:13.049Z,49.37
2022-12-17T15:39:41.486Z,49.83
2022-12-17T15:42:28.421Z,44.87
2022-12-17T15:44:56.715Z,47.80
2022-12-17T15:47:23.743Z,41.10
2022-12-17T15:49:52.146Z,45.03
2022-12-17T15:52:19.828Z,47.80
2022-12-17T15:54:46.843Z,42.10
2022-12-17T15:57:18.357Z,45.43
2022-12-17T15:59:45.783Z,42.03
2022-12-17T16:02:14.279Z,48.37
2022-12-17T16:04:41.403Z,48.60
2022-12-17T16:07:08.742Z,49.23
2022-12-17T16:09:35.783Z,49.33
2022-12-17T16:12:02.933Z,44.63
2022-12-17T16:14:30.111Z,52.20
2022-12-17T16:16:57.378Z,49.20
2022-12-17T16:19:26.482Z,49.37
2022-12-17T16:21:53.475Z,49.37
2022-12-17T16:24:20.543Z,46.80
2022-12-17T16:26:47.613Z,47.90
2022-12-17T16:29:14.721Z,46.90
2022-12-17T16:31:41.911Z,40.60
2022-12-17T16:34:10.732Z,46.47
2022-12-17T16:36:39.414Z,46.20
2022-12-17T16:39:06.806Z,50.23
2022-12-17T16:41:35.058Z,46.23
2022-12-17T16:44:02.247Z,45.73
2022-12-17T16:46:32.523Z,52.23
2022-12-17T16:49:06.715Z,48.80
2022-12-17T16:51:34.300Z,55.37
2022-12-17T16:54:08.370Z,48.43
2022-12-17T16:56:39.921Z,45.37
2022-12-17T16:59:09.465Z,48.03
2022-12-17T17:01:38.915Z,44.57
2022-12-17T17:04:09.011Z,44.83
2022-12-17T17:06:39.263Z,45.83
2022-12-17T17:09:08.850Z,45.53
2022-12-17T17:11:35.971Z,49.00
2022-12-17T17:14:03.702Z,51.23
2022-12-17T17:16:31.083Z,48.77
2022-12-17T17:18:58.128Z,51.93
2022-12-17T17:21:28.919Z,53.37
2022-12-17T17:23:59.654Z,50.67
2022-12-17T17:26:30.409Z,44.93
2022-12-17T17:28:57.840Z,41.80
2022-12-17T17:31:46.495Z,49.70
2022-12-17T17:34:15.052Z,42.43
2022-12-17T17:36:42.872Z,46.57
2022-12-17T17:39:10.141Z,45.00
2022-12-17T17:41:38.562Z,43.40
2022-12-17T17:44:08.413Z,44.17
2022-12-17T17:46:35.967Z,47.13
2022-12-17T17:49:07.123Z,45.93
2022-12-17T17:52:08.360Z,40.03
2022-12-17T17:54:24.690Z,45.90
2022-12-17T17:56:53.140Z,48.63
2022-12-17T17:59:20.462Z,52.10
2022-12-17T18:01:49.867Z,45.17
2022-12-17T18:04:20.109Z,47.30
2022-12-17T18:07:23.062Z,49.90
2022-12-17T18:09:35.757Z,45.40
2022-12-17T18:12:24.700Z,51.27
2022-12-17T18:15:13.068Z,48.90
2022-12-17T18:17:39.360Z,47.90
2022-12-17T18:20:09.464Z,42.87
2022-12-17T18:22:36.502Z,46.70
2022-12-17T18:25:04.242Z,51.17
2022-12-17T18:27:32.829Z,44.80
2022-12-17T18:29:59.891Z,45.57
2022-12-17T18:32:26.951Z,50.13
2022-12-17T18:34:54.019Z,49.63
2022-12-17T18:37:21.039Z,46.43
2022-12-17T18:39:49.011Z,47.83
2022-12-17T18:42:34.610Z,46.43
2022-12-17T18:45:03.197Z,47.37
2022-12-17T18:47:30.356Z,43.67
2022-12-17T18:49:57.524Z,44.90
2022-12-17T18:52:24.713Z,40.40
2022-12-17T18:54:51.814Z,40.53
2022-12-17T18:57:18.814Z,44.77
2022-12-17T18:59:45.831Z,39.53
2022-12-17T19:02:15.184Z,43.50
2022-12-17T19:04:42.766Z,45.27
2022-12-17T19:07:10.360Z,44.07
2022-12-17T19:09:39.377Z,42.10
2022-12-17T19:12:09.466Z,39.40
2022-12-17T19:14:37.120Z,46.37
2022-12-17T19:17:05.787Z,41.43
2022-12-17T19:19:34.086Z,39.67
2022-12-17T19:22:01.962Z,45.47
2022-12-17T19:24:29.286Z,42.27
2022-12-17T19:26:56.597Z,42.33
2022-12-17T19:29:23.650Z,45.50
2022-12-17T19:31:50.745Z,39.40
2022-12-17T19:34:19.703Z,41.67
2022-12-17T19:36:48.189Z,48.60
2022-12-17T19:39:18.788Z,44.57
2022-12-17T19:41:46.793Z,43.07
2022-12-17T19:44:16.345Z,43.63
2022-12-17T19:46:44.365Z,46.23
2022-12-17T19:49:12.337Z,45.93
2022-12-17T19:51:44.052Z,45.57
2022-12-17T19:54:15.037Z,44.60
2022-12-17T19:56:44.561Z,48.37
2022-12-17T19:59:13.649Z,41.23
2022-12-17T20:01:43.480Z,44.30
2022-12-17T20:04:12.674Z,43.47
2022-12-17T20:06:39.674Z,40.07
2022-12-17T20:09:07.484Z,45.50
2022-12-17T20:11:37.151Z,46.90
2022-12-17T20:14:08.446Z,49.37
2022-12-17T20:16:39.124Z,44.63
2022-12-17T20:19:10.461Z,53.73
2022-12-17T20:21:37.807Z,42.97
2022-12-17T20:24:05.501Z,44.27
2022-12-17T20:26:32.598Z,43.03
2022-12-17T20:29:01.068Z,45.70
2022-12-17T20:31:28.725Z,44.43
2022-12-17T20:33:56.009Z,39.43
2022-12-17T20:36:23.551Z,47.27
2022-12-17T20:38:50.502Z,45.43
2022-12-17T20:41:20.888Z,43.40
2022-12-17T20:43:48.398Z,50.07
2022-12-17T20:46:19.299Z,37.30
2022-12-17T20:48:47.291Z,41.60
2022-12-17T20:51:18.409Z,41.33
2022-12-17T20:53:46.289Z,37.00
2022-12-17T20:56:18.137Z,43.80
2022-12-17T20:58:45.649Z,42.73
2022-12-17T21:01:18.460Z,45.90
2022-12-17T21:03:47.009Z,40.27
2022-12-17T21:06:17.919Z,48.53
2022-12-17T21:08:50.206Z,42.37
2022-12-17T21:11:19.822Z,40.60
2022-12-17T21:13:47.070Z,42.87
2022-12-17T21:16:18.259Z,44.40
2022-12-17T21:18:46.093Z,43.47
2022-12-17T21:21:18.218Z,38.57
2022-12-17T21:23:46.863Z,48.60
2022-12-17T21:26:17.732Z,40.97
2022-12-17T21:28:47.765Z,41.07
2022-12-17T21:31:18.232Z,43.03
2022-12-17T21:33:49.443Z,39.13
2022-12-17T21:36:19.671Z,41.80
2022-12-17T21:38:47.720Z,43.57
2022-12-17T21:41:17.635Z,35.00
2022-12-17T21:43:44.675Z,41.97
2022-12-17T21:46:13.064Z,38.90
2022-12-17T21:48:42.997Z,42.10
2022-12-17T21:51:13.469Z,36.93
2022-12-17T21:53:43.393Z,38.80
2022-12-17T21:56:12.951Z,41.80
2022-12-17T21:58:42.499Z,40.10
2022-12-17T22:01:19.116Z,39.13
2022-12-17T22:03:53.569Z,42.77
2022-12-17T22:06:23.875Z,45.03
2022-12-17T22:09:01.706Z,42.47
2022-12-17T22:11:32.226Z,43.83
2022-12-17T22:14:18.942Z,45.13
2022-12-17T22:16:49.519Z,44.40
2022-12-17T22:19:22.804Z,42.13
2022-12-17T22:21:57.695Z,35.93
2022-12-17T22:24:25.698Z,42.03
2022-12-17T22:26:59.934Z,40.90
2022-12-17T22:29:46.593Z,42.10
2022-12-17T22:32:32.569Z,37.87
2022-12-17T22:37:17.435Z,41.57
2022-12-17T22:43:34.122Z,43.20
2022-12-17T22:44:35.376Z,39.70
2022-12-17T22:44:36.242Z,37.73
2022-12-17T22:46:19.304Z,39.43
2022-12-17T22:48:47.168Z,42.30
2022-12-17T22:51:24.712Z,39.87
2022-12-17T22:54:06.113Z,39.70
2022-12-17T22:57:26.690Z,38.43
2022-12-17T22:59:21.886Z,41.23
2022-12-17T23:01:48.949Z,35.23
2022-12-17T23:04:16.704Z,44.37
2022-12-17T23:06:46.006Z,41.43
2022-12-17T23:09:14.492Z,44.20
2022-12-17T23:11:41.449Z,33.00
2022-12-17T23:14:08.774Z,39.07
2022-12-17T23:16:38.689Z,37.73
2022-12-17T23:19:07.378Z,36.50
2022-12-17T23:21:35.105Z,37.47
2022-12-17T23:24:04.935Z,36.20
2022-12-17T23:26:34.694Z,35.77
2022-12-17T23:29:05.311Z,38.13
2022-12-17T23:31:35.962Z,33.80
2022-12-17T23:34:03.557Z,36.90
2022-12-17T23:36:30.497Z,39.87
2022-12-17T23:38:57.720Z,43.60
2022-12-17T23:41:29.287Z,39.00
2022-12-17T23:43:58.178Z,36.00
2022-12-17T23:46:28.954Z,34.73
2022-12-17T23:48:56.333Z,40.53
2022-12-17T23:51:25.950Z,37.37
2022-12-17T23:53:52.985Z,35.87
2022-12-17T23:56:22.751Z,33.93
2022-12-17T23:58:54.660Z,36.23
